Sankoumaru 31 — JD2200 — position and weather

sailwx.info

Track history (hours):
 
Tides and Currents Weather Stations Pressure Air Temp Water Temp Dewpoint Dewpoint Depression Visibility Wind Speed Wind Dir Waves Ship Positions

Sankoumaru 31

Last reported at 2016-Jul-01 08:27 UTC. Time now 2016-Jul-01 22:36 UTC.
Position N 35°09' E 139°44'.

Length 75 m; draft 5 m.

Type: Cargo ship. MMSI: 431501842.

Date/timePositionNaut miles runAvg speedWind from/ knotsBaromVisibWave heightAir tempDewpointWater temp
2016-Jul-01 08:27N 35°09' E 139°44'1010.5
2016-Jul-01 07:33N 35°19' E 139°43'1010.4
2016-Jul-01 06:33N 35°28' E 139°49'1211.8
2016-Jul-01 05:33N 35°37' E 139°58'4 4.0
2016-Jul-01 04:33N 35°41' E 139°58'0 0.0
2016-Jul-01 03:33N 35°41' E 139°58'0 0.0
2016-Jul-01 02:33N 35°41' E 139°58'0 0.0
2016-Jul-01 01:33N 35°41' E 139°58'0 0.0
2016-Jul-01 00:33N 35°41' E 139°58'0 0.0
2016-Jun-30 23:33N 35°41' E 139°58'0 0.0
2016-Jun-30 22:33N 35°41' E 139°58'2 1.8
2016-Jun-30 21:33N 35°39' E 139°59'2 2.1
2016-Jun-30 20:32N 35°37' E 139°58'0 0.0
2016-Jun-30 19:32N 35°37' E 139°58'0 0.0
2016-Jun-30 18:26N 35°37' E 139°58'0 0.1
2016-Jun-30 17:32N 35°37' E 139°58'0 0.0
2016-Jun-30 16:32N 35°37' E 139°58'0 0.0
2016-Jun-30 15:32N 35°37' E 139°58'0 0.0
2016-Jun-30 14:32N 35°37' E 139°58'0 0.0
2016-Jun-30 13:32N 35°37' E 139°58'0 0.0
2016-Jun-30 12:20N 35°37' E 139°58'0 0.0
2016-Jun-30 11:20N 35°37' E 139°58'1 0.8
2016-Jun-30 10:33N 35°37' E 139°58'1313.0
2016-Jun-30 09:33N 35°25' E 139°51'4 3.3
2016-Jun-30 08:28N 35°22' E 139°51'0 0.0
2016-Jun-30 07:25N 35°22' E 139°51'0 0.0
2016-Jun-30 06:31N 35°22' E 139°51'0 0.0
2016-Jun-30 05:22N 35°22' E 139°51'0 0.0
2016-Jun-30 04:25N 35°22' E 139°51'0 0.2
2016-Jun-30 03:33N 35°22' E 139°51'6 6.3
2016-Jun-30 02:33N 35°17' E 139°46'1111.0
2016-Jun-30 01:33N 35°06' E 139°45'17 7.6
2016-Jun-29 23:19N 34°55' E 140°01'911.2
2016-Jun-29 22:31N 35°00' E 140°10'2211.1
2016-Jun-29 20:33N 35°15' E 140°30'3711.0
2016-Jun-29 17:11N 35°47' E 140°54'811.6
2016-Jun-29 16:31N 35°53' E 140°48'7 6.6
2016-Jun-29 15:32N 35°55' E 140°40'0 0.3
2016-Jun-29 14:19N 35°56' E 140°40'0 0.0
2016-Jun-29 13:31N 35°56' E 140°40'0 0.0
2016-Jun-29 12:31N 35°56' E 140°40'0 0.0
2016-Jun-29 11:25N 35°56' E 140°40'0 0.0
2016-Jun-29 10:28N 35°56' E 140°40'0 0.0
2016-Jun-29 09:31N 35°56' E 140°40'0 0.0
2016-Jun-29 08:31N 35°56' E 140°40'0 0.0
2016-Jun-29 07:31N 35°56' E 140°40'0 0.1
2016-Jun-29 06:29N 35°56' E 140°40'  
Track history (hours):
 
Tides and Currents Weather Stations Pressure Air Temp Water Temp Dewpoint Dewpoint Depression Visibility Wind Speed Wind Dir Waves Ship Positions

Sankoumaru 31

Last reported at 2016-Jul-01 08:27 UTC. Time now 2016-Jul-01 22:36 UTC.
Position N 35°09' E 139°44'.

Length 75 m; draft 5 m.

Type: Cargo ship. MMSI: 431501842.

Date/timePositionNaut miles runAvg speedWind from/ knotsBaromVisibWave heightAir tempDewpointWater temp
2016-Jul-01 08:27N 35°09' E 139°44'1010.5
2016-Jul-01 07:33N 35°19' E 139°43'1010.4
2016-Jul-01 06:33N 35°28' E 139°49'1211.8
2016-Jul-01 05:33N 35°37' E 139°58'4 4.0
2016-Jul-01 04:33N 35°41' E 139°58'0 0.0
2016-Jul-01 03:33N 35°41' E 139°58'0 0.0
2016-Jul-01 02:33N 35°41' E 139°58'0 0.0
2016-Jul-01 01:33N 35°41' E 139°58'0 0.0
2016-Jul-01 00:33N 35°41' E 139°58'0 0.0
2016-Jun-30 23:33N 35°41' E 139°58'0 0.0
2016-Jun-30 22:33N 35°41' E 139°58'2 1.8
2016-Jun-30 21:33N 35°39' E 139°59'2 2.1
2016-Jun-30 20:32N 35°37' E 139°58'0 0.0
2016-Jun-30 19:32N 35°37' E 139°58'0 0.0
2016-Jun-30 18:26N 35°37' E 139°58'0 0.1
2016-Jun-30 17:32N 35°37' E 139°58'0 0.0
2016-Jun-30 16:32N 35°37' E 139°58'0 0.0
2016-Jun-30 15:32N 35°37' E 139°58'0 0.0
2016-Jun-30 14:32N 35°37' E 139°58'0 0.0
2016-Jun-30 13:32N 35°37' E 139°58'0 0.0
2016-Jun-30 12:20N 35°37' E 139°58'0 0.0
2016-Jun-30 11:20N 35°37' E 139°58'1 0.8
2016-Jun-30 10:33N 35°37' E 139°58'1313.0
2016-Jun-30 09:33N 35°25' E 139°51'4 3.3
2016-Jun-30 08:28N 35°22' E 139°51'0 0.0
2016-Jun-30 07:25N 35°22' E 139°51'0 0.0
2016-Jun-30 06:31N 35°22' E 139°51'0 0.0
2016-Jun-30 05:22N 35°22' E 139°51'0 0.0
2016-Jun-30 04:25N 35°22' E 139°51'0 0.2
2016-Jun-30 03:33N 35°22' E 139°51'6 6.3
2016-Jun-30 02:33N 35°17' E 139°46'1111.0
2016-Jun-30 01:33N 35°06' E 139°45'17 7.6
2016-Jun-29 23:19N 34°55' E 140°01'911.2
2016-Jun-29 22:31N 35°00' E 140°10'2211.1
2016-Jun-29 20:33N 35°15' E 140°30'3711.0
2016-Jun-29 17:11N 35°47' E 140°54'811.6
2016-Jun-29 16:31N 35°53' E 140°48'7 6.6
2016-Jun-29 15:32N 35°55' E 140°40'0 0.3
2016-Jun-29 14:19N 35°56' E 140°40'0 0.0
2016-Jun-29 13:31N 35°56' E 140°40'0 0.0
2016-Jun-29 12:31N 35°56' E 140°40'0 0.0
2016-Jun-29 11:25N 35°56' E 140°40'0 0.0
2016-Jun-29 10:28N 35°56' E 140°40'0 0.0
2016-Jun-29 09:31N 35°56' E 140°40'0 0.0
2016-Jun-29 08:31N 35°56' E 140°40'0 0.0
2016-Jun-29 07:31N 35°56' E 140°40'0 0.1
2016-Jun-29 06:29N 35°56' E 140°40'  

Dump ship's entire track history